Aérodrome :
LOGIN :

S'inscrire | Disclaimer

   EN    FR    IT 

 










Légende :    VFR   VFR Marginal   IFR   IFR Intensif   IFR Très Intensif
Visi : 
Plafond : 
>= 8 km
>= 3000ft
5 à 8 km
1000 à 3000 ft
1500m à 5 km
500 à 1000 ft
800 à 1500m
200 à 500 ft
< 800m
< 200 ft
Symboles :   Orages  Brouillard  Fortes neiges  Fortes précipitations  Vent > 20 kt
SIGMETs :   Divers  Orages  Givrage  Turbulence  Onde Orograph.  Cendres Volcan.






- Altitude de l'aérodrome : 162 ft
- Code IATA : BOD


LFBD - Bordeaux / Merignac

DERNIER METAR :
  • 272200Z AUTO 24001KT CAVOK 13/12 Q1026 NOSIG

METARs EXPIRÉS :
  • 272130Z AUTO 26003KT CAVOK 14/12 Q1026 NOSIG
  • 272100Z AUTO 21001KT CAVOK 14/12 Q1025 NOSIG
  • 272030Z AUTO 00000KT CAVOK 14/12 Q1025 NOSIG
  • 272000Z AUTO 21002KT CAVOK 14/12 Q1025 NOSIG
  • 271930Z AUTO 26003KT CAVOK 15/12 Q1025 NOSIG

TAF TAF LFBD
Valide du 27 à 18h jusqu'au 29 à 00h UTC


271700Z 2718/2824 29005KT CAVOK TX22/2815Z TN11/2806Z
BECMG 2719/2721 VRB02KT
PROB30
TEMPO 2804/2806 0800 BCFG
BECMG 2808/2810 12005KT
ATIS : +33 5 57 92 81 04



MET'MAP, la Météo Aéronautique d'un coup d'oeil ! - Copyright ORBIFLY Décembre 2007 - Disclaimer

ORBIFLY MET'MAP TEAM :

Programmation & Développement : Alexandra Zaïnal
Sur une idée originale de : Baudouin d'Aumeries
Assistance à la programmation : Marc-Olivier Méhu
Soutien technique & logistique : Manuel Goepfert

Contact : metmap@orbifly.com




SOURCES & CREDITS :

   NOAA